Bassano, Canada
Current Conditions -  °F | °C
As of 12:00 AM on Friday 28 Nov 2014 (Local Time) from CYYC Reporting Station
Light Snow Light Snow  
Wind Chill: -25°   Ceiling: 1200
Heat Index: -15°   Visibility: 2.5mi
Dew Point: -17°   Wind: 15mph
Humidity: 85%   Direction: 10°N
Pressure: 29.63"   Gusts: NA
Location:  50.78°N, 112.47°W
Report Text: CYYC 280700Z 01013KT 2 1/2SM -SN OVC012 M15/M17 A2963 RMK SN2SC6 VIS S-SW 5 SLP105
Loading
Personal Weather Stations






























Interactive Weather Map New forecast layout! Learn more

10-Day Weather Forecast

Advertisements
Track Severe Weather on mobile